createdAt,value
2023-03-29T00:02:19.925Z,1.15
2023-03-29T00:04:47.297Z,1.52
2023-03-29T00:07:14.546Z,1.67
2023-03-29T00:09:42.682Z,1.35
2023-03-29T00:12:11.781Z,0.93
2023-03-29T00:14:39.008Z,1.40
2023-03-29T00:17:06.614Z,1.40
2023-03-29T00:19:36.862Z,1.48
2023-03-29T00:22:06.380Z,1.50
2023-03-29T00:24:33.647Z,1.30
2023-03-29T00:27:01.245Z,1.35
2023-03-29T00:29:28.805Z,1.27
2023-03-29T00:31:56.238Z,1.30
2023-03-29T00:34:24.813Z,1.20
2023-03-29T00:36:53.232Z,1.60
2023-03-29T00:39:20.834Z,1.63
2023-03-29T00:41:50.424Z,1.70
2023-03-29T00:44:55.441Z,1.52
2023-03-29T00:47:32.800Z,1.48
2023-03-29T00:50:25.952Z,1.70
2023-03-29T00:53:15.395Z,1.50
2023-03-29T00:55:55.665Z,1.50
2023-03-29T00:58:27.033Z,1.77
2023-03-29T01:01:03.474Z,1.50
2023-03-29T01:03:38.231Z,1.80
2023-03-29T01:06:09.312Z,1.50
2023-03-29T01:08:43.576Z,1.48
2023-03-29T01:11:15.967Z,1.35
2023-03-29T01:13:57.463Z,1.40
2023-03-29T01:16:25.914Z,1.63
2023-03-29T01:18:53.196Z,1.60
2023-03-29T01:21:51.792Z,1.50
2023-03-29T01:24:33.160Z,1.40
2023-03-29T01:27:03.386Z,1.30
2023-03-29T01:30:09.300Z,1.70
2023-03-29T01:32:57.235Z,1.95
2023-03-29T01:35:48.606Z,1.75
2023-03-29T01:38:26.577Z,1.60
2023-03-29T01:40:53.780Z,1.50
2023-03-29T01:43:47.095Z,1.50
2023-03-29T01:46:19.280Z,1.40
2023-03-29T01:48:57.215Z,1.40
2023-03-29T01:51:30.475Z,1.33
2023-03-29T01:54:06.754Z,1.38
2023-03-29T01:56:42.424Z,1.25
2023-03-29T01:59:18.248Z,1.25
2023-03-29T02:01:50.553Z,1.80
2023-03-29T02:04:24.229Z,2.00
2023-03-29T02:06:54.382Z,1.48
2023-03-29T02:09:23.636Z,1.33
2023-03-29T02:11:52.065Z,1.40
2023-03-29T02:14:19.560Z,1.80
2023-03-29T02:16:49.723Z,1.50
2023-03-29T02:19:18.996Z,1.65
2023-03-29T02:21:56.121Z,1.70
2023-03-29T02:24:25.289Z,1.65
2023-03-29T02:26:52.809Z,1.45
2023-03-29T02:29:20.244Z,1.50
2023-03-29T02:31:53.709Z,1.55
2023-03-29T02:34:26.959Z,1.50
2023-03-29T02:36:59.026Z,1.63
2023-03-29T02:39:29.606Z,1.30
2023-03-29T02:41:59.113Z,1.30
2023-03-29T02:44:33.017Z,1.30
2023-03-29T02:47:34.879Z,1.13
2023-03-29T02:50:02.578Z,1.23
2023-03-29T02:52:36.362Z,1.10
2023-03-29T02:55:08.286Z,1.23
2023-03-29T02:57:38.351Z,1.02
2023-03-29T03:00:09.994Z,1.10
2023-03-29T03:02:38.100Z,0.93
2023-03-29T03:05:07.169Z,1.10
2023-03-29T03:07:34.186Z,1.20
2023-03-29T03:10:01.971Z,1.40
2023-03-29T03:12:29.681Z,1.20
2023-03-29T03:14:56.729Z,1.30
2023-03-29T03:17:24.795Z,1.30
2023-03-29T03:19:53.362Z,1.90
2023-03-29T03:22:20.702Z,1.55
2023-03-29T03:24:49.340Z,1.58
2023-03-29T03:27:18.218Z,1.60
2023-03-29T03:29:46.102Z,1.15
2023-03-29T03:32:33.653Z,1.40
2023-03-29T03:35:29.907Z,1.38
2023-03-29T03:37:57.136Z,1.30
2023-03-29T03:40:26.065Z,1.58
2023-03-29T03:42:54.283Z,1.40
2023-03-29T03:45:21.505Z,1.23
2023-03-29T03:48:01.423Z,1.33
2023-03-29T03:51:01.464Z,1.20
2023-03-29T03:53:34.019Z,1.40
2023-03-29T03:56:14.060Z,1.55
2023-03-29T03:59:07.396Z,1.25
2023-03-29T04:01:54.890Z,1.27
2023-03-29T04:04:24.932Z,1.20
2023-03-29T04:07:06.001Z,1.50
2023-03-29T04:09:40.791Z,1.42
2023-03-29T04:12:22.336Z,1.30
2023-03-29T04:14:50.343Z,1.50
2023-03-29T04:17:22.215Z,1.48
2023-03-29T04:19:58.849Z,1.17
2023-03-29T04:22:29.506Z,1.55
2023-03-29T04:24:56.686Z,1.52
2023-03-29T04:27:44.977Z,1.85
2023-03-29T04:30:23.608Z,1.40
2023-03-29T04:33:09.243Z,1.67
2023-03-29T04:35:38.879Z,1.42
2023-03-29T04:38:10.918Z,1.30
2023-03-29T04:40:39.350Z,2.22
2023-03-29T04:43:22.771Z,1.48
2023-03-29T04:46:08.059Z,1.67
2023-03-29T04:48:54.207Z,1.60
2023-03-29T04:51:31.630Z,1.60
2023-03-29T04:53:59.964Z,1.70
2023-03-29T04:56:27.682Z,2.20
2023-03-29T04:59:17.716Z,1.95
2023-03-29T05:01:45.230Z,2.00
2023-03-29T05:04:12.955Z,1.95
2023-03-29T05:06:49.909Z,1.60
2023-03-29T05:09:17.519Z,2.33
2023-03-29T05:11:50.241Z,1.80
2023-03-29T05:14:18.713Z,2.08
2023-03-29T05:16:45.863Z,1.95
2023-03-29T05:19:13.363Z,2.10
2023-03-29T05:21:45.629Z,2.22
2023-03-29T05:24:17.891Z,2.45
2023-03-29T05:26:59.684Z,2.47
2023-03-29T05:29:32.927Z,2.70
2023-03-29T05:32:16.068Z,2.47
2023-03-29T05:34:43.657Z,5.53
2023-03-29T05:37:10.747Z,3.00
2023-03-29T05:39:49.947Z,3.67
2023-03-29T05:42:22.725Z,3.03
2023-03-29T05:44:56.711Z,2.70
2023-03-29T05:47:30.345Z,2.50
2023-03-29T05:49:57.606Z,2.63
2023-03-29T05:52:25.291Z,2.35
2023-03-29T05:54:52.526Z,2.70
2023-03-29T05:57:20.671Z,2.90
2023-03-29T05:59:48.344Z,2.45
2023-03-29T06:02:17.023Z,2.65
2023-03-29T06:04:49.151Z,2.40
2023-03-29T06:07:25.616Z,2.60
2023-03-29T06:10:20.465Z,4.30
2023-03-29T06:12:53.266Z,4.03
2023-03-29T06:15:24.327Z,5.20
2023-03-29T06:17:57.473Z,4.05
2023-03-29T06:20:24.869Z,5.20
2023-03-29T06:22:57.095Z,5.25
2023-03-29T06:25:25.234Z,5.60
2023-03-29T06:27:52.875Z,6.50
2023-03-29T06:30:21.064Z,6.80
2023-03-29T06:35:44.281Z,6.10
2023-03-29T06:38:15.411Z,5.80
2023-03-29T06:41:07.319Z,6.13
2023-03-29T06:44:04.244Z,7.68
2023-03-29T06:46:37.622Z,6.63
2023-03-29T06:49:09.537Z,3.45
2023-03-29T06:52:00.187Z,2.60
2023-03-29T06:54:27.529Z,2.95
2023-03-29T06:57:03.026Z,3.10
2023-03-29T06:59:31.471Z,1.90
2023-03-29T07:02:10.307Z,2.08
2023-03-29T07:04:59.294Z,3.45
2023-03-29T07:07:53.566Z,4.72
2023-03-29T07:10:33.638Z,3.15
2023-03-29T07:13:19.093Z,3.00
2023-03-29T07:15:49.621Z,4.63
2023-03-29T07:18:22.628Z,3.85
2023-03-29T07:20:50.126Z,4.38
2023-03-29T07:23:18.133Z,4.05
2023-03-29T07:25:47.204Z,5.25
2023-03-29T07:28:14.671Z,2.60
2023-03-29T07:30:42.044Z,1.90
2023-03-29T07:33:18.921Z,4.43
2023-03-29T07:35:52.218Z,5.97
2023-03-29T07:38:19.719Z,5.68
2023-03-29T07:40:53.820Z,4.05
2023-03-29T07:43:39.956Z,3.72
2023-03-29T07:46:10.235Z,2.60
2023-03-29T07:48:39.029Z,3.97
2023-03-29T07:51:08.703Z,3.58
2023-03-29T07:53:45.166Z,3.03
2023-03-29T07:56:30.978Z,2.88
2023-03-29T07:59:21.747Z,1.60
2023-03-29T08:01:58.182Z,2.00
2023-03-29T08:04:38.933Z,1.65
2023-03-29T08:07:22.626Z,1.70
2023-03-29T08:10:22.031Z,1.58
2023-03-29T08:12:55.813Z,1.52
2023-03-29T13:59:45.080Z,2.45
2023-03-29T14:02:39.767Z,2.30
2023-03-29T14:05:11.897Z,2.50
2023-03-29T14:07:44.282Z,2.08
2023-03-29T14:10:15.218Z,2.03
2023-03-29T14:12:43.025Z,2.72
2023-03-29T14:15:20.987Z,2.05
2023-03-29T14:17:48.920Z,2.33
2023-03-29T14:20:16.806Z,2.30
2023-03-29T14:22:44.593Z,2.10
2023-03-29T14:25:18.375Z,2.40
2023-03-29T14:27:45.713Z,2.60
2023-03-29T14:30:22.048Z,3.67
2023-03-29T14:32:51.551Z,3.38
2023-03-29T14:35:18.732Z,2.40
2023-03-29T14:37:48.214Z,3.13
2023-03-29T14:40:20.448Z,2.28
2023-03-29T14:42:49.294Z,2.15
2023-03-29T14:45:21.290Z,2.65
2023-03-29T14:47:50.232Z,2.45
2023-03-29T14:50:26.340Z,2.38
2023-03-29T14:52:54.850Z,2.08
2023-03-29T14:55:24.034Z,2.28
2023-03-29T14:57:54.754Z,2.20
2023-03-29T15:00:24.787Z,1.83
2023-03-29T15:03:00.283Z,2.95
2023-03-29T15:05:48.165Z,2.20
2023-03-29T15:08:20.055Z,2.22
2023-03-29T15:10:47.288Z,2.53
2023-03-29T15:13:24.685Z,2.28
2023-03-29T15:16:01.101Z,2.13
2023-03-29T15:18:42.148Z,2.42
2023-03-29T15:21:13.954Z,2.00
2023-03-29T15:23:48.375Z,2.53
2023-03-29T15:26:20.912Z,2.75
2023-03-29T15:28:49.400Z,2.70
2023-03-29T15:31:23.658Z,2.78
2023-03-29T15:34:01.477Z,2.67
2023-03-29T15:36:28.674Z,2.42
2023-03-29T15:38:56.041Z,2.40
2023-03-29T15:41:23.405Z,3.03
2023-03-29T15:43:51.788Z,3.78
2023-03-29T15:46:19.073Z,2.60
2023-03-29T15:48:46.306Z,3.83
2023-03-29T15:51:13.781Z,2.47
2023-03-29T15:53:41.244Z,2.63
2023-03-29T15:56:11.716Z,2.70
2023-03-29T15:58:39.368Z,2.75
2023-03-29T16:01:34.069Z,2.40
2023-03-29T16:04:11.348Z,2.45
2023-03-29T16:06:38.883Z,3.05
2023-03-29T16:09:07.198Z,2.13
2023-03-29T16:11:34.730Z,2.47
2023-03-29T16:14:01.887Z,3.17
2023-03-29T16:16:29.177Z,1.80
2023-03-29T16:18:56.472Z,2.40
2023-03-29T16:21:24.566Z,2.53
2023-03-29T16:23:51.877Z,3.08
2023-03-29T16:26:19.181Z,3.20
2023-03-29T16:28:46.315Z,2.13
2023-03-29T16:31:14.067Z,2.45
2023-03-29T16:33:41.859Z,2.47
2023-03-29T16:36:09.860Z,2.10
2023-03-29T16:38:37.333Z,2.00
2023-03-29T16:41:04.834Z,2.45
2023-03-29T16:43:32.026Z,1.98
2023-03-29T16:45:59.080Z,2.50
2023-03-29T16:48:27.361Z,2.40
2023-03-29T16:50:54.494Z,2.42
2023-03-29T16:53:22.578Z,2.28
2023-03-29T16:55:49.748Z,2.38
2023-03-29T16:58:17.012Z,2.38
2023-03-29T17:00:47.841Z,2.60
2023-03-29T17:03:17.029Z,2.03
2023-03-29T17:05:52.086Z,2.55
2023-03-29T17:08:20.833Z,2.25
2023-03-29T17:10:54.068Z,2.58
2023-03-29T17:13:24.033Z,3.25
2023-03-29T17:15:52.638Z,2.13
2023-03-29T17:18:25.404Z,2.95
2023-03-29T17:20:56.778Z,2.17
2023-03-29T17:23:25.161Z,2.55
2023-03-29T17:25:55.090Z,3.03
2023-03-29T17:28:22.800Z,3.05
2023-03-29T17:30:50.085Z,2.63
2023-03-29T17:33:18.231Z,2.30
2023-03-29T17:35:46.888Z,2.50
2023-03-29T17:38:14.008Z,2.85
2023-03-29T17:40:41.365Z,2.60
2023-03-29T17:43:08.719Z,2.80
2023-03-29T17:45:35.844Z,2.83
2023-03-29T17:48:06.040Z,2.97
2023-03-29T17:50:34.132Z,3.38
2023-03-29T17:53:01.352Z,3.22
2023-03-29T17:55:28.538Z,3.65
2023-03-29T17:57:56.492Z,2.65
2023-03-29T18:00:23.862Z,2.33
2023-03-29T18:02:51.096Z,3.10
2023-03-29T18:05:18.802Z,3.78
2023-03-29T18:07:46.358Z,3.40
2023-03-29T18:10:13.417Z,2.80
2023-03-29T18:12:40.415Z,2.70
2023-03-29T18:15:08.309Z,2.65
2023-03-29T18:17:35.938Z,3.28
2023-03-29T18:20:09.547Z,2.30
2023-03-29T18:22:36.790Z,2.20
2023-03-29T18:25:05.758Z,2.45
2023-03-29T18:27:32.974Z,2.92
2023-03-29T18:30:00.264Z,2.53
2023-03-29T18:32:27.821Z,2.30
2023-03-29T18:34:54.936Z,1.85
2023-03-29T18:37:22.053Z,3.08
2023-03-29T18:39:49.342Z,2.70
2023-03-29T18:42:16.691Z,1.95
2023-03-29T18:44:43.845Z,2.53
2023-03-29T18:47:11.522Z,1.98
2023-03-29T18:49:38.597Z,2.00
2023-03-29T18:52:06.129Z,2.20
2023-03-29T18:54:33.314Z,2.25
2023-03-29T18:57:00.886Z,2.22
2023-03-29T18:59:27.997Z,2.50
2023-03-29T19:01:55.122Z,2.10
2023-03-29T19:04:23.447Z,1.90
2023-03-29T19:06:51.934Z,2.25
2023-03-29T19:09:19.088Z,2.67
2023-03-29T19:11:48.179Z,2.50
2023-03-29T19:14:16.003Z,2.53
2023-03-29T19:16:43.504Z,2.80
2023-03-29T19:19:11.002Z,2.28
2023-03-29T19:21:38.734Z,2.00
2023-03-29T19:24:07.871Z,2.78
2023-03-29T19:26:35.599Z,2.92
2023-03-29T19:29:03.558Z,2.10
2023-03-29T19:31:31.909Z,2.33
2023-03-29T19:34:00.128Z,2.38
2023-03-29T19:36:28.407Z,2.83
2023-03-29T19:38:56.212Z,2.65
2023-03-29T19:41:23.424Z,2.63
2023-03-29T19:43:50.557Z,2.60
2023-03-29T19:46:18.882Z,3.05
2023-03-29T19:48:47.077Z,2.47
2023-03-29T19:51:17.292Z,2.50
2023-03-29T19:53:44.702Z,2.60
2023-03-29T19:56:13.373Z,2.80
2023-03-29T19:58:40.999Z,2.80
2023-03-29T20:01:08.107Z,3.42
2023-03-29T20:03:36.361Z,2.75
2023-03-29T20:06:04.087Z,3.03
2023-03-29T20:08:31.504Z,3.00
2023-03-29T20:11:10.443Z,2.88
2023-03-29T20:13:39.337Z,2.85
2023-03-29T20:16:14.386Z,2.60
2023-03-29T20:18:41.678Z,2.10
2023-03-29T20:21:10.007Z,3.13
2023-03-29T20:23:37.248Z,2.28
2023-03-29T20:26:04.516Z,2.72
2023-03-29T20:28:31.777Z,2.42
2023-03-29T20:31:04.027Z,2.10
2023-03-29T20:33:31.529Z,2.30
2023-03-29T20:35:59.087Z,2.20
2023-03-29T20:38:26.452Z,2.65
2023-03-29T20:40:53.764Z,2.10
2023-03-29T20:43:21.077Z,2.10
2023-03-29T20:45:53.796Z,2.38
2023-03-29T20:50:57.938Z,2.17
2023-03-29T20:53:25.937Z,2.15
2023-03-29T20:55:53.080Z,1.73
2023-03-29T20:58:20.154Z,1.90
2023-03-29T21:00:48.592Z,2.25
2023-03-29T21:03:15.930Z,2.65
2023-03-29T21:05:43.838Z,2.17
2023-03-29T21:08:11.396Z,2.60
2023-03-29T21:10:38.573Z,2.00
2023-03-29T21:13:06.044Z,2.53
2023-03-29T21:15:33.365Z,2.15
2023-03-29T21:18:00.576Z,2.67
2023-03-29T21:20:27.772Z,2.28
2023-03-29T21:22:55.101Z,1.83
2023-03-29T21:25:22.265Z,2.65
2023-03-29T21:27:49.577Z,2.38
2023-03-29T21:30:16.788Z,1.90
2023-03-29T21:32:44.069Z,2.10
2023-03-29T21:35:11.402Z,1.73
2023-03-29T21:37:39.056Z,2.30
2023-03-29T21:40:07.176Z,2.60
2023-03-29T21:42:35.104Z,2.17
2023-03-29T21:45:02.903Z,2.53
2023-03-29T21:47:30.691Z,2.40
2023-03-29T21:49:57.862Z,2.40
2023-03-29T21:52:25.123Z,2.55
2023-03-29T21:54:52.258Z,2.40
2023-03-29T21:57:19.477Z,2.35
2023-03-29T21:59:46.603Z,2.70
2023-03-29T22:02:13.808Z,3.30
2023-03-29T22:04:41.478Z,2.58
2023-03-29T22:07:11.052Z,2.42
2023-03-29T22:09:41.480Z,2.75
2023-03-29T22:12:10.118Z,2.78
2023-03-29T22:14:37.496Z,2.53
2023-03-29T22:17:06.292Z,2.75
2023-03-29T22:19:39.886Z,2.50
2023-03-29T22:22:14.079Z,2.22
2023-03-29T22:24:42.603Z,2.50
2023-03-29T22:27:11.841Z,2.80
2023-03-29T22:29:39.099Z,2.28
2023-03-29T22:32:06.287Z,2.40
2023-03-29T22:34:33.517Z,2.15
2023-03-29T22:37:00.713Z,3.33
2023-03-29T22:39:27.750Z,2.25
2023-03-29T22:41:54.922Z,2.47
2023-03-29T22:44:22.276Z,2.70
2023-03-29T22:46:49.684Z,2.00
2023-03-29T22:49:16.810Z,2.65
2023-03-29T22:51:43.900Z,2.53
2023-03-29T22:54:11.540Z,2.33
2023-03-29T22:56:38.789Z,2.20
2023-03-29T22:59:05.907Z,2.30
2023-03-29T23:01:33.061Z,2.28
2023-03-29T23:04:00.232Z,2.83
2023-03-29T23:06:27.323Z,3.08
2023-03-29T23:08:54.299Z,2.38
2023-03-29T23:11:21.876Z,2.55
2023-03-29T23:13:49.090Z,2.38
2023-03-29T23:16:16.652Z,2.58
2023-03-29T23:18:43.689Z,2.38
2023-03-29T23:21:10.782Z,3.10
2023-03-29T23:23:38.697Z,2.17
2023-03-29T23:26:06.746Z,2.30
2023-03-29T23:28:34.857Z,2.35
2023-03-29T23:31:09.963Z,2.63
2023-03-29T23:33:42.913Z,2.72
2023-03-29T23:36:16.351Z,2.20
2023-03-29T23:38:45.718Z,2.95
2023-03-29T23:41:13.660Z,2.25
2023-03-29T23:43:43.081Z,2.67
2023-03-29T23:46:13.622Z,2.70
2023-03-29T23:48:43.629Z,2.50
2023-03-29T23:51:12.070Z,2.80
2023-03-29T23:53:39.170Z,2.60
2023-03-29T23:56:06.616Z,2.38
2023-03-29T23:58:36.988Z,2.28
